Time,TemperatureF,DewpointF,PressureIn,WindDirection,WindDirectionDegrees,WindSpeedMPH,WindSpeedGustMPH,Humidity,HourlyPrecipIn,Conditions,Clouds,dailyrainin,SoftwareType,DateUTC
2013-07-05 00:00:00,77.3,73.3,30.16,South,180,3.3,3.3,87,-99.99,,,-99.99,tws,2013-07-05 04:00:00,
2013-07-05 00:01:00,77.3,73.4,30.16,SSE,157,1.7,1.7,87,-99.99,,,-99.99,tws,2013-07-05 04:01:00,
2013-07-05 00:03:00,77.3,73.2,30.16,SE,135,1.0,1.0,87,-99.99,,,-99.99,tws,2013-07-05 04:03:00,
2013-07-05 00:04:00,77.3,73.3,30.16,SE,135,0.0,0.0,87,-99.99,,,-99.99,tws,2013-07-05 04:04:00,
2013-07-05 00:05:00,77.3,73.3,30.16,SSE,157,0.0,0.0,87,-99.99,,,-99.99,tws,2013-07-05 04:05:00,
2013-07-05 00:06:00,77.0,73.2,30.16,ENE,67,2.3,2.3,87,-99.99,,,-99.99,tws,2013-07-05 04:06:00,
2013-07-05 00:11:00,77.0,73.1,30.16,SE,135,0.0,0.0,87,-99.99,,,-99.99,tws,2013-07-05 04:11:00,
2013-07-05 00:16:00,76.7,73.1,30.16,SSE,157,1.5,1.5,88,-99.99,,,-99.99,tws,2013-07-05 04:16:00,
2013-07-05 00:21:00,76.6,73.0,30.16,SSE,157,0.0,0.0,88,-99.99,,,-99.99,tws,2013-07-05 04:21:00,
2013-07-05 00:26:00,76.6,73.0,30.16,SSW,202,4.2,4.2,88,-99.99,,,-99.99,tws,2013-07-05 04:26:00,
2013-07-05 00:31:00,76.7,73.1,30.16,SSE,157,3.4,3.4,88,-99.99,,,-99.99,tws,2013-07-05 04:31:00,
2013-07-05 00:36:00,76.7,73.0,30.16,SSE,157,4.3,4.3,88,-99.99,,,-99.99,tws,2013-07-05 04:36:00,
2013-07-05 00:41:00,76.2,72.9,30.16,South,180,3.8,3.8,89,-99.99,,,-99.99,tws,2013-07-05 04:41:00,
2013-07-05 00:46:00,76.0,72.7,30.16,South,180,4.4,4.4,89,-99.99,,,-99.99,tws,2013-07-05 04:46:00,
2013-07-05 00:51:00,76.0,72.8,30.16,SSE,157,7.8,7.8,89,-99.99,,,-99.99,tws,2013-07-05 04:51:00,
2013-07-05 00:56:00,76.0,72.5,30.16,SSE,157,0.6,0.6,88,-99.99,,,-99.99,tws,2013-07-05 04:56:00,
2013-07-05 01:01:00,75.8,72.7,30.16,SE,135,5.5,5.5,89,-99.99,,,-99.99,tws,2013-07-05 05:01:00,
2013-07-05 01:06:00,75.7,72.6,30.16,SSE,157,4.3,4.3,90,-99.99,,,-99.99,tws,2013-07-05 05:06:00,
2013-07-05 01:11:00,75.8,72.8,30.16,SE,135,4.5,4.5,90,-99.99,,,-99.99,tws,2013-07-05 05:11:00,
2013-07-05 01:16:00,75.8,72.7,30.16,SSE,157,6.2,6.2,89,-99.99,,,-99.99,tws,2013-07-05 05:16:00,
2013-07-05 01:21:00,75.8,72.1,30.16,SSE,157,5.6,5.6,88,-99.99,,,-99.99,tws,2013-07-05 05:21:00,
2013-07-05 01:26:00,75.6,72.6,30.16,SE,135,6.7,6.7,90,-99.99,,,-99.99,tws,2013-07-05 05:26:00,
2013-07-05 01:31:00,75.2,72.4,30.16,SE,135,8.9,8.9,90,-99.99,,,-99.99,tws,2013-07-05 05:31:00,
2013-07-05 01:36:00,75.0,72.3,30.16,SSE,157,9.0,9.0,91,-99.99,,,-99.99,tws,2013-07-05 05:36:00,
2013-07-05 01:41:00,75.0,72.3,30.16,South,180,9.5,9.5,91,-99.99,,,-99.99,tws,2013-07-05 05:41:00,
2013-07-05 01:46:00,75.0,72.4,30.15,SE,135,11.2,11.2,91,-99.99,,,-99.99,tws,2013-07-05 05:46:00,
2013-07-05 01:51:00,75.0,72.4,30.15,SSE,157,11.9,11.9,91,-99.99,,,-99.99,tws,2013-07-05 05:51:00,
2013-07-05 01:56:00,75.3,72.5,30.15,SSE,157,11.2,11.2,90,-99.99,,,-99.99,tws,2013-07-05 05:56:00,
2013-07-05 02:01:00,75.2,72.4,30.15,South,180,9.8,9.8,90,-99.99,,,-99.99,tws,2013-07-05 06:01:00,
2013-07-05 02:06:00,75.1,72.4,30.16,South,180,7.8,7.8,91,-99.99,,,-99.99,tws,2013-07-05 06:06:00,
2013-07-05 02:11:00,75.0,72.4,30.15,South,180,11.1,11.1,91,-99.99,,,-99.99,tws,2013-07-05 06:11:00,
2013-07-05 02:16:00,74.9,72.3,30.15,South,180,7.1,7.1,91,-99.99,,,-99.99,tws,2013-07-05 06:16:00,
2013-07-05 02:21:00,75.1,72.4,30.15,SSE,157,6.5,6.5,91,-99.99,,,-99.99,tws,2013-07-05 06:21:00,
2013-07-05 02:26:00,75.1,72.5,30.16,South,180,8.9,8.9,91,-99.99,,,-99.99,tws,2013-07-05 06:26:00,
2013-07-05 02:31:00,74.7,72.3,30.16,SSW,202,4.2,4.2,92,-99.99,,,-99.99,tws,2013-07-05 06:31:00,
2013-07-05 02:36:00,74.7,71.9,30.16,South,180,9.9,9.9,90,-99.99,,,-99.99,tws,2013-07-05 06:36:00,
2013-07-05 02:41:00,74.9,72.3,30.16,South,180,8.3,8.3,91,-99.99,,,-99.99,tws,2013-07-05 06:41:00,
2013-07-05 02:46:00,74.6,72.3,30.16,SSE,157,9.0,9.0,92,-99.99,,,-99.99,tws,2013-07-05 06:46:00,
2013-07-05 02:51:00,74.4,72.3,30.16,South,180,5.4,5.4,92,-99.99,,,-99.99,tws,2013-07-05 06:51:00,
2013-07-05 02:56:00,74.6,72.3,30.16,SSW,202,6.0,6.0,92,-99.99,,,-99.99,tws,2013-07-05 06:56:00,
2013-07-05 03:01:00,74.4,72.3,30.16,South,180,7.4,7.4,92,-99.99,,,-99.99,tws,2013-07-05 07:01:00,
2013-07-05 03:06:00,74.2,71.9,30.16,South,180,7.6,7.6,92,-99.99,,,-99.99,tws,2013-07-05 07:06:00,
2013-07-05 03:11:00,74.4,72.3,30.16,SSW,202,6.7,6.7,92,-99.99,,,-99.99,tws,2013-07-05 07:11:00,
2013-07-05 03:16:00,74.0,72.0,30.16,SSW,202,9.6,9.6,93,-99.99,,,-99.99,tws,2013-07-05 07:16:00,
2013-07-05 03:21:00,74.1,72.2,30.16,South,180,8.5,8.5,93,-99.99,,,-99.99,tws,2013-07-05 07:21:00,
2013-07-05 03:26:00,74.2,72.2,30.16,South,180,10.9,10.9,93,-99.99,,,-99.99,tws,2013-07-05 07:26:00,
2013-07-05 03:31:00,74.2,72.2,30.16,SSE,157,8.0,8.0,93,-99.99,,,-99.99,tws,2013-07-05 07:31:00,
2013-07-05 03:36:00,74.1,72.1,30.16,South,180,5.7,5.7,93,-99.99,,,-99.99,tws,2013-07-05 07:36:00,
2013-07-05 03:41:00,74.0,72.1,30.16,SE,135,6.7,6.7,93,-99.99,,,-99.99,tws,2013-07-05 07:41:00,
2013-07-05 03:46:00,73.9,72.1,30.15,SE,135,7.6,7.6,93,-99.99,,,-99.99,tws,2013-07-05 07:46:00,
2013-07-05 03:51:00,74.0,72.1,30.16,SE,135,6.9,6.9,93,-99.99,,,-99.99,tws,2013-07-05 07:51:00,
2013-07-05 03:56:00,73.9,72.1,30.15,ESE,112,5.7,5.7,94,-99.99,,,-99.99,tws,2013-07-05 07:56:00,
2013-07-05 04:01:00,73.8,72.1,30.16,ESE,112,5.8,5.8,94,-99.99,,,-99.99,tws,2013-07-05 08:01:00,
2013-07-05 04:06:00,73.9,72.1,30.16,SE,135,6.1,6.1,93,-99.99,,,-99.99,tws,2013-07-05 08:06:00,
2013-07-05 04:11:00,73.4,71.9,30.15,SSE,157,7.3,7.3,94,-99.99,,,-99.99,tws,2013-07-05 08:11:00,
2013-07-05 04:16:00,73.8,72.1,30.16,SE,135,3.3,3.3,94,-99.99,,,-99.99,tws,2013-07-05 08:16:00,
2013-07-05 04:21:00,73.9,72.1,30.16,SSE,157,3.5,3.5,93,-99.99,,,-99.99,tws,2013-07-05 08:21:00,
2013-07-05 04:26:00,73.4,72.0,30.16,SE,135,3.8,3.8,95,-99.99,,,-99.99,tws,2013-07-05 08:26:00,
2013-07-05 04:31:00,73.2,71.7,30.16,ESE,112,3.0,3.0,94,-99.99,,,-99.99,tws,2013-07-05 08:31:00,
2013-07-05 04:36:00,73.5,72.0,30.16,South,180,4.4,4.4,94,-99.99,,,-99.99,tws,2013-07-05 08:36:00,
2013-07-05 04:41:00,73.8,71.9,30.16,SSE,157,5.2,5.2,93,-99.99,,,-99.99,tws,2013-07-05 08:41:00,
2013-07-05 04:46:00,73.7,71.9,30.16,SSE,157,3.0,3.0,94,-99.99,,,-99.99,tws,2013-07-05 08:46:00,
2013-07-05 04:51:00,73.9,72.1,30.16,SE,135,2.1,2.1,94,-99.99,,,-99.99,tws,2013-07-05 08:51:00,
2013-07-05 04:57:00,73.5,72.0,30.16,SSE,157,4.1,4.1,94,-99.99,,,-99.99,tws,2013-07-05 08:57:00,
2013-07-05 05:02:00,73.5,71.9,30.16,SE,135,1.4,1.4,94,-99.99,,,-99.99,tws,2013-07-05 09:02:00,
2013-07-05 05:07:00,73.5,71.8,30.16,SSE,157,3.9,3.9,94,-99.99,,,-99.99,tws,2013-07-05 09:07:00,
2013-07-05 05:12:00,73.4,71.8,30.16,SSE,157,4.8,4.8,94,-99.99,,,-99.99,tws,2013-07-05 09:12:00,
2013-07-05 05:17:00,73.5,71.9,30.16,SE,135,4.3,4.3,94,-99.99,,,-99.99,tws,2013-07-05 09:17:00,
2013-07-05 05:22:00,73.0,71.6,30.16,SSE,157,8.0,8.0,95,-99.99,,,-99.99,tws,2013-07-05 09:22:00,
2013-07-05 05:27:00,73.4,71.8,30.17,SSE,157,3.9,3.9,94,-99.99,,,-99.99,tws,2013-07-05 09:27:00,
2013-07-05 05:32:00,73.2,71.7,30.16,SE,135,5.3,5.3,94,-99.99,,,-99.99,tws,2013-07-05 09:32:00,
2013-07-05 05:37:00,73.4,71.8,30.17,SSE,157,4.3,4.3,94,-99.99,,,-99.99,tws,2013-07-05 09:37:00,
2013-07-05 05:42:00,73.4,71.8,30.17,SE,135,4.2,4.2,94,-99.99,,,-99.99,tws,2013-07-05 09:42:00,
2013-07-05 05:48:00,73.3,71.7,30.18,SE,135,4.2,4.2,94,-99.99,,,-99.99,tws,2013-07-05 09:48:00,
2013-07-05 05:53:00,72.9,71.4,30.18,SSE,157,7.3,7.3,95,-99.99,,,-99.99,tws,2013-07-05 09:53:00,
2013-07-05 05:59:00,72.8,71.4,30.18,SSE,157,5.1,5.1,95,-99.99,,,-99.99,tws,2013-07-05 09:59:00,
2013-07-05 06:04:00,73.4,71.7,30.18,SSE,157,4.0,4.0,94,-99.99,,,-99.99,tws,2013-07-05 10:04:00,
2013-07-05 06:09:00,72.9,71.4,30.18,SSE,157,8.8,8.8,95,-99.99,,,-99.99,tws,2013-07-05 10:09:00,
2013-07-05 06:14:00,72.9,71.1,30.18,SE,135,7.7,7.7,94,-99.99,,,-99.99,tws,2013-07-05 10:14:00,
2013-07-05 06:19:00,73.1,71.6,30.18,SE,135,7.5,7.5,94,-99.99,,,-99.99,tws,2013-07-05 10:19:00,
2013-07-05 06:24:00,73.1,71.6,30.18,SSE,157,7.9,7.9,94,-99.99,,,-99.99,tws,2013-07-05 10:24:00,
2013-07-05 06:29:00,73.3,71.7,30.18,SSE,157,10.2,10.2,94,-99.99,,,-99.99,tws,2013-07-05 10:29:00,
2013-07-05 06:34:00,73.4,71.8,30.18,SSE,157,8.7,8.7,94,-99.99,,,-99.99,tws,2013-07-05 10:34:00,
2013-07-05 06:39:00,73.4,71.7,30.17,South,180,11.1,11.1,94,-99.99,,,-99.99,tws,2013-07-05 10:39:00,
2013-07-05 06:44:00,73.5,71.7,30.17,South,180,9.2,9.2,93,-99.99,,,-99.99,tws,2013-07-05 10:44:00,
2013-07-05 06:49:00,73.8,71.8,30.17,SSE,157,8.2,8.2,93,-99.99,,,-99.99,tws,2013-07-05 10:49:00,
2013-07-05 06:54:00,74.2,72.1,30.17,South,180,9.9,9.9,93,-99.99,,,-99.99,tws,2013-07-05 10:54:00,
2013-07-05 06:59:00,74.4,72.2,30.17,SSW,202,2.7,2.7,92,-99.99,,,-99.99,tws,2013-07-05 10:59:00,
2013-07-05 07:04:00,74.4,72.1,30.17,SSE,157,8.9,8.9,92,-99.99,,,-99.99,tws,2013-07-05 11:04:00,
2013-07-05 07:11:00,74.7,72.2,30.17,SSE,157,11.8,11.8,91,-99.99,,,-99.99,tws,2013-07-05 11:11:00,
2013-07-05 07:16:00,75.0,72.5,30.17,SSE,157,3.6,3.6,91,-99.99,,,-99.99,tws,2013-07-05 11:16:00,
2013-07-05 07:21:00,74.9,72.3,30.18,South,180,6.4,6.4,91,-99.99,,,-99.99,tws,2013-07-05 11:21:00,
2013-07-05 07:26:00,75.2,72.6,30.18,South,180,12.9,12.9,91,-99.99,,,-99.99,tws,2013-07-05 11:26:00,
2013-07-05 07:31:00,75.7,72.7,30.18,SSW,202,7.7,7.7,90,-99.99,,,-99.99,tws,2013-07-05 11:31:00,
2013-07-05 07:36:00,75.6,72.6,30.17,SW,225,11.7,11.7,90,-99.99,,,-99.99,tws,2013-07-05 11:36:00,
2013-07-05 07:41:00,75.6,71.9,30.17,WSW,247,7.4,7.4,88,-99.99,,,-99.99,tws,2013-07-05 11:41:00,
2013-07-05 07:46:00,76.0,72.9,30.17,SSW,202,6.1,6.1,89,-99.99,,,-99.99,tws,2013-07-05 11:46:00,
2013-07-05 07:52:00,75.9,72.4,30.17,SSW,202,14.3,14.3,88,-99.99,,,-99.99,tws,2013-07-05 11:52:00,
2013-07-05 07:57:00,76.5,72.9,30.17,SSW,202,8.4,8.4,88,-99.99,,,-99.99,tws,2013-07-05 11:57:00,
2013-07-05 08:02:00,76.5,72.9,30.17,WSW,247,11.0,11.0,88,-99.99,,,-99.99,tws,2013-07-05 12:02:00,
2013-07-05 08:07:00,76.8,73.2,30.18,SW,225,9.2,9.2,88,-99.99,,,-99.99,tws,2013-07-05 12:07:00,
2013-07-05 08:12:00,77.7,74.0,30.18,South,180,4.2,4.2,88,-99.99,,,-99.99,tws,2013-07-05 12:12:00,
2013-07-05 08:17:00,77.3,73.3,30.18,SSW,202,11.1,11.1,87,-99.99,,,-99.99,tws,2013-07-05 12:17:00,
2013-07-05 08:22:00,77.9,73.9,30.18,SE,135,7.3,7.3,87,-99.99,,,-99.99,tws,2013-07-05 12:22:00,
2013-07-05 08:27:00,78.2,74.2,30.18,SW,225,7.0,7.0,87,-99.99,,,-99.99,tws,2013-07-05 12:27:00,
2013-07-05 08:32:00,77.8,73.5,30.18,WSW,247,9.0,9.0,86,-99.99,,,-99.99,tws,2013-07-05 12:32:00,
2013-07-05 08:37:00,78.4,74.2,30.18,South,180,8.4,8.4,86,-99.99,,,-99.99,tws,2013-07-05 12:37:00,
2013-07-05 08:42:00,78.6,73.9,30.18,SSE,157,11.8,11.8,85,-99.99,,,-99.99,tws,2013-07-05 12:42:00,
2013-07-05 08:48:00,79.1,74.1,30.17,South,180,6.1,6.1,84,-99.99,,,-99.99,tws,2013-07-05 12:48:00,
2013-07-05 08:53:00,79.3,74.4,30.17,South,180,8.7,8.7,84,-99.99,,,-99.99,tws,2013-07-05 12:53:00,
2013-07-05 08:58:00,79.4,74.4,30.18,South,180,10.2,10.2,84,-99.99,,,-99.99,tws,2013-07-05 12:58:00,
2013-07-05 09:03:00,79.6,74.0,30.18,SSE,157,15.2,15.2,82,-99.99,,,-99.99,tws,2013-07-05 13:03:00,
2013-07-05 09:08:00,80.2,74.6,30.17,South,180,8.1,8.1,82,-99.99,,,-99.99,tws,2013-07-05 13:08:00,
2013-07-05 09:14:00,80.0,74.1,30.17,SSW,202,10.9,10.9,82,-99.99,,,-99.99,tws,2013-07-05 13:14:00,
2013-07-05 09:19:00,80.7,74.0,30.17,WSW,247,7.9,7.9,79,-99.99,,,-99.99,tws,2013-07-05 13:19:00,
2013-07-05 09:24:00,81.0,74.7,30.16,South,180,7.4,7.4,80,-99.99,,,-99.99,tws,2013-07-05 13:24:00,
2013-07-05 09:30:00,81.6,74.9,30.16,WSW,247,3.1,3.1,79,-99.99,,,-99.99,tws,2013-07-05 13:30:00,
2013-07-05 09:35:00,81.1,74.1,30.16,SSW,202,7.8,7.8,78,-99.99,,,-99.99,tws,2013-07-05 13:35:00,
2013-07-05 09:40:00,81.4,74.6,30.16,SW,225,9.2,9.2,79,-99.99,,,-99.99,tws,2013-07-05 13:40:00,
2013-07-05 09:45:00,81.6,74.5,30.16,SW,225,8.0,8.0,78,-99.99,,,-99.99,tws,2013-07-05 13:45:00,
2013-07-05 09:50:00,82.1,74.3,30.16,SSW,202,8.5,8.5,76,-99.99,,,-99.99,tws,2013-07-05 13:50:00,
2013-07-05 09:55:00,82.5,74.7,30.16,SSW,202,7.9,7.9,76,-99.99,,,-99.99,tws,2013-07-05 13:55:00,
2013-07-05 10:00:00,82.9,74.7,30.16,WSW,247,9.9,9.9,75,-99.99,,,-99.99,tws,2013-07-05 14:00:00,
2013-07-05 10:05:00,82.2,74.0,30.16,SW,225,10.7,10.7,75,-99.99,,,-99.99,tws,2013-07-05 14:05:00,
2013-07-05 10:10:00,81.6,73.9,30.16,West,270,10.9,10.9,77,-99.99,,,-99.99,tws,2013-07-05 14:10:00,
2013-07-05 10:15:00,83.2,74.4,30.16,West,270,7.1,7.1,74,-99.99,,,-99.99,tws,2013-07-05 14:15:00,
2013-07-05 10:20:00,83.4,74.8,30.16,West,270,11.2,11.2,74,-99.99,,,-99.99,tws,2013-07-05 14:20:00,
2013-07-05 10:25:00,83.0,75.5,30.16,South,180,9.9,9.9,77,-99.99,,,-99.99,tws,2013-07-05 14:25:00,
2013-07-05 10:30:00,84.2,75.7,30.16,SSW,202,3.0,3.0,75,-99.99,,,-99.99,tws,2013-07-05 14:30:00,
2013-07-05 10:37:00,84.9,76.8,30.16,SSE,157,8.8,8.8,76,-99.99,,,-99.99,tws,2013-07-05 14:37:00,
2013-07-05 10:42:00,85.5,76.3,30.16,ESE,112,10.4,10.4,73,-99.99,,,-99.99,tws,2013-07-05 14:42:00,
2013-07-05 10:47:00,85.5,76.0,30.15,South,180,12.1,12.1,72,-99.99,,,-99.99,tws,2013-07-05 14:47:00,
2013-07-05 10:52:00,85.6,76.1,30.15,SSE,157,8.1,8.1,72,-99.99,,,-99.99,tws,2013-07-05 14:52:00,
2013-07-05 10:57:00,85.1,76.0,30.15,South,180,17.0,17.0,73,-99.99,,,-99.99,tws,2013-07-05 14:57:00,
2013-07-05 11:02:00,85.5,75.7,30.16,SSE,157,8.4,8.4,72,-99.99,,,-99.99,tws,2013-07-05 15:02:00,
2013-07-05 11:07:00,86.0,76.5,30.15,South,180,12.1,12.1,72,-99.99,,,-99.99,tws,2013-07-05 15:07:00,
2013-07-05 11:12:00,85.8,75.0,30.15,SW,225,11.9,11.9,69,-99.99,,,-99.99,tws,2013-07-05 15:12:00,
2013-07-05 11:18:00,86.6,76.7,30.15,SSE,157,6.3,6.3,71,-99.99,,,-99.99,tws,2013-07-05 15:18:00,
2013-07-05 11:23:00,87.2,76.3,30.15,South,180,7.8,7.8,69,-99.99,,,-99.99,tws,2013-07-05 15:23:00,
2013-07-05 11:28:00,86.9,76.4,30.14,SSW,202,11.2,11.2,70,-99.99,,,-99.99,tws,2013-07-05 15:28:00,
2013-07-05 11:33:00,85.9,74.9,30.15,SSW,202,12.5,12.5,69,-99.99,,,-99.99,tws,2013-07-05 15:33:00,
2013-07-05 11:38:00,87.2,75.6,30.15,SW,225,7.2,7.2,68,-99.99,,,-99.99,tws,2013-07-05 15:38:00,
2013-07-05 11:43:00,88.4,77.0,30.15,SSW,202,3.3,3.3,68,-99.99,,,-99.99,tws,2013-07-05 15:43:00,
2013-07-05 11:49:00,87.0,75.8,30.14,ESE,112,5.9,5.9,68,-99.99,,,-99.99,tws,2013-07-05 15:49:00,
2013-07-05 11:51:00,87.9,77.0,30.15,SSE,157,11.5,11.5,69,-99.99,,,-99.99,tws,2013-07-05 15:51:00,
2013-07-05 11:56:00,86.9,76.1,30.14,SW,225,9.4,9.4,69,-99.99,,,-99.99,tws,2013-07-05 15:56:00,
2013-07-05 12:01:00,87.7,76.6,30.14,SW,225,8.5,8.5,69,-99.99,,,-99.99,tws,2013-07-05 16:01:00,
2013-07-05 12:06:00,87.6,75.9,30.14,WSW,247,8.4,8.4,67,-99.99,,,-99.99,tws,2013-07-05 16:06:00,
2013-07-05 12:11:00,87.9,74.5,30.14,WSW,247,11.0,11.0,63,-99.99,,,-99.99,tws,2013-07-05 16:11:00,
2013-07-05 12:16:00,89.1,76.9,30.14,South,180,9.3,9.3,66,-99.99,,,-99.99,tws,2013-07-05 16:16:00,
2013-07-05 12:21:00,89.6,78.0,30.14,NE,45,1.4,1.4,68,-99.99,,,-99.99,tws,2013-07-05 16:21:00,
2013-07-05 12:26:00,89.5,77.2,30.14,SSE,157,11.8,11.8,66,-99.99,,,-99.99,tws,2013-07-05 16:26:00,
2013-07-05 12:31:00,90.3,78.6,30.14,South,180,3.1,3.1,67,-99.99,,,-99.99,tws,2013-07-05 16:31:00,
2013-07-05 12:36:00,88.2,75.5,30.14,SW,225,15.0,15.0,65,-99.99,,,-99.99,tws,2013-07-05 16:36:00,
2013-07-05 12:42:00,90.3,78.4,30.14,ESE,112,12.1,12.1,67,-99.99,,,-99.99,tws,2013-07-05 16:42:00,
2013-07-05 12:47:00,89.9,77.3,30.13,SSW,202,7.1,7.1,66,-99.99,,,-99.99,tws,2013-07-05 16:47:00,
2013-07-05 12:52:00,89.3,77.1,30.13,SE,135,14.3,14.3,66,-99.99,,,-99.99,tws,2013-07-05 16:52:00,
2013-07-05 12:57:00,89.6,76.9,30.13,SSW,202,8.9,8.9,65,-99.99,,,-99.99,tws,2013-07-05 16:57:00,
2013-07-05 13:02:00,88.4,76.3,30.12,SSW,202,17.3,17.3,66,-99.99,,,-99.99,tws,2013-07-05 17:02:00,
2013-07-05 13:07:00,90.0,77.6,30.12,SSW,202,7.3,7.3,66,-99.99,,,-99.99,tws,2013-07-05 17:07:00,
2013-07-05 13:11:00,89.0,75.6,30.12,West,270,16.8,16.8,64,-99.99,,,-99.99,tws,2013-07-05 17:11:00,
2013-07-05 13:16:00,89.0,75.4,30.12,West,270,17.8,17.8,63,-99.99,,,-99.99,tws,2013-07-05 17:16:00,
2013-07-05 13:21:00,90.9,79.1,30.12,South,180,7.3,7.3,68,-99.99,,,-99.99,tws,2013-07-05 17:21:00,
2013-07-05 13:26:00,90.0,78.1,30.12,WSW,247,12.1,12.1,67,-99.99,,,-99.99,tws,2013-07-05 17:26:00,
2013-07-05 13:31:00,89.9,76.5,30.12,SW,225,14.8,14.8,64,-99.99,,,-99.99,tws,2013-07-05 17:31:00,
2013-07-05 13:36:00,90.4,77.6,30.11,SSW,202,10.8,10.8,65,-99.99,,,-99.99,tws,2013-07-05 17:36:00,
2013-07-05 13:41:00,91.0,77.1,30.11,WSW,247,7.3,7.3,63,-99.99,,,-99.99,tws,2013-07-05 17:41:00,
2013-07-05 13:46:00,90.1,77.1,30.11,SW,225,16.8,16.8,65,-99.99,,,-99.99,tws,2013-07-05 17:46:00,
2013-07-05 13:51:00,90.5,77.6,30.11,South,180,23.2,23.2,65,-99.99,,,-99.99,tws,2013-07-05 17:51:00,
2013-07-05 13:56:00,91.4,78.0,30.11,SSE,157,13.6,13.6,64,-99.99,,,-99.99,tws,2013-07-05 17:56:00,
2013-07-05 14:01:00,92.6,77.9,30.10,SSE,157,11.9,11.9,61,-99.99,,,-99.99,tws,2013-07-05 18:01:00,
2013-07-05 14:06:00,92.4,79.0,30.11,South,180,12.8,12.8,64,-99.99,,,-99.99,tws,2013-07-05 18:06:00,
2013-07-05 14:11:00,91.4,78.2,30.10,South,180,14.1,14.1,64,-99.99,,,-99.99,tws,2013-07-05 18:11:00,
2013-07-05 14:17:00,91.2,78.0,30.11,SSW,202,9.0,9.0,64,-99.99,,,-99.99,tws,2013-07-05 18:17:00,
2013-07-05 14:22:00,91.3,78.3,30.11,SSE,157,12.6,12.6,65,-99.99,,,-99.99,tws,2013-07-05 18:22:00,
2013-07-05 14:27:00,92.2,78.6,30.10,SW,225,4.8,4.8,64,-99.99,,,-99.99,tws,2013-07-05 18:27:00,
2013-07-05 14:32:00,91.5,77.6,30.10,SSW,202,17.2,17.2,63,-99.99,,,-99.99,tws,2013-07-05 18:32:00,
2013-07-05 14:37:00,92.8,78.9,30.09,South,180,13.5,13.5,63,-99.99,,,-99.99,tws,2013-07-05 18:37:00,
2013-07-05 14:42:00,93.2,78.9,30.09,SW,225,11.5,11.5,62,-99.99,,,-99.99,tws,2013-07-05 18:42:00,
2013-07-05 14:45:00,93.1,78.3,30.09,SSW,202,17.2,17.2,61,-99.99,,,-99.99,tws,2013-07-05 18:45:00,
2013-07-05 14:50:00,91.7,77.8,30.09,South,180,13.8,13.8,63,-99.99,,,-99.99,tws,2013-07-05 18:50:00,
2013-07-05 14:55:00,90.6,76.7,30.09,SW,225,16.1,16.1,63,-99.99,,,-99.99,tws,2013-07-05 18:55:00,
2013-07-05 15:00:00,91.4,78.0,30.09,West,270,12.2,12.2,64,-99.99,,,-99.99,tws,2013-07-05 19:00:00,
2013-07-05 15:05:00,92.4,77.8,30.09,South,180,12.0,12.0,61,-99.99,,,-99.99,tws,2013-07-05 19:05:00,
2013-07-05 15:10:00,91.5,76.7,30.09,SW,225,18.7,18.7,61,-99.99,,,-99.99,tws,2013-07-05 19:10:00,
2013-07-05 15:15:00,91.1,76.3,30.08,South,180,17.3,17.3,61,-99.99,,,-99.99,tws,2013-07-05 19:15:00,
2013-07-05 15:20:00,91.5,76.9,30.08,SW,225,15.5,15.5,61,-99.99,,,-99.99,tws,2013-07-05 19:20:00,
2013-07-05 15:25:00,92.8,78.4,30.08,South,180,5.7,5.7,62,-99.99,,,-99.99,tws,2013-07-05 19:25:00,
2013-07-05 15:27:00,92.9,78.5,30.08,South,180,22.9,22.9,62,-99.99,,,-99.99,tws,2013-07-05 19:27:00,
2013-07-05 15:32:00,93.1,79.1,30.07,West,270,14.6,14.6,63,-99.99,,,-99.99,tws,2013-07-05 19:32:00,
2013-07-05 15:37:00,93.5,79.3,30.07,SSW,202,6.4,6.4,63,-99.99,,,-99.99,tws,2013-07-05 19:37:00,
2013-07-05 15:42:00,92.9,77.9,30.08,SSE,157,17.7,17.7,61,-99.99,,,-99.99,tws,2013-07-05 19:42:00,
2013-07-05 15:47:00,93.3,77.5,30.07,WSW,247,18.2,18.2,59,-99.99,,,-99.99,tws,2013-07-05 19:47:00,
2013-07-05 15:52:00,91.4,77.1,30.07,SW,225,18.9,18.9,62,-99.99,,,-99.99,tws,2013-07-05 19:52:00,
2013-07-05 15:57:00,93.9,78.6,30.07,South,180,14.5,14.5,60,-99.99,,,-99.99,tws,2013-07-05 19:57:00,
2013-07-05 16:02:00,93.1,78.1,30.07,South,180,16.1,16.1,61,-99.99,,,-99.99,tws,2013-07-05 20:02:00,
2013-07-05 16:07:00,94.6,79.3,30.07,SSE,157,15.3,15.3,60,-99.99,,,-99.99,tws,2013-07-05 20:07:00,
2013-07-05 16:12:00,91.5,77.7,30.07,South,180,17.0,17.0,63,-99.99,,,-99.99,tws,2013-07-05 20:12:00,
2013-07-05 16:17:00,87.7,75.1,30.08,SSE,157,26.8,26.8,65,-99.99,,,-99.99,tws,2013-07-05 20:17:00,
2013-07-05 16:22:00,86.6,75.8,30.07,SW,225,13.6,13.6,69,-99.99,,,-99.99,tws,2013-07-05 20:22:00,
2013-07-05 16:27:00,86.7,74.8,30.08,West,270,18.4,18.4,67,-99.99,,,-99.99,tws,2013-07-05 20:27:00,
2013-07-05 16:32:00,89.9,77.3,30.07,NW,315,12.7,12.7,66,-99.99,,,-99.99,tws,2013-07-05 20:32:00,
2013-07-05 16:37:00,91.2,77.9,30.07,SW,225,7.6,7.6,64,-99.99,,,-99.99,tws,2013-07-05 20:37:00,
2013-07-05 16:42:00,90.5,77.7,30.07,SW,225,11.2,11.2,65,-99.99,,,-99.99,tws,2013-07-05 20:42:00,
2013-07-05 16:47:00,90.8,77.3,30.07,WSW,247,16.4,16.4,64,-99.99,,,-99.99,tws,2013-07-05 20:47:00,
2013-07-05 16:52:00,87.8,76.0,30.07,SSW,202,14.2,14.2,67,-99.99,,,-99.99,tws,2013-07-05 20:52:00,
2013-07-05 16:57:00,88.8,76.1,30.07,West,270,14.3,14.3,65,-99.99,,,-99.99,tws,2013-07-05 20:57:00,
2013-07-05 17:02:00,91.5,78.2,30.07,WSW,247,9.8,9.8,64,-99.99,,,-99.99,tws,2013-07-05 21:02:00,
2013-07-05 17:07:00,91.5,77.8,30.07,South,180,11.4,11.4,63,-99.99,,,-99.99,tws,2013-07-05 21:07:00,
2013-07-05 17:12:00,91.7,76.8,30.07,WSW,247,13.4,13.4,61,-99.99,,,-99.99,tws,2013-07-05 21:12:00,
2013-07-05 17:17:00,90.4,76.4,30.07,SW,225,19.9,19.9,63,-99.99,,,-99.99,tws,2013-07-05 21:17:00,
2013-07-05 17:22:00,90.4,76.1,30.07,SSW,202,18.6,18.6,62,-99.99,,,-99.99,tws,2013-07-05 21:22:00,
2013-07-05 17:27:00,92.0,77.2,30.07,WSW,247,6.9,6.9,61,-99.99,,,-99.99,tws,2013-07-05 21:27:00,
2013-07-05 17:32:00,91.9,77.1,30.07,South,180,10.5,10.5,61,-99.99,,,-99.99,tws,2013-07-05 21:32:00,
2013-07-05 17:37:00,90.5,76.1,30.07,SSW,202,15.6,15.6,62,-99.99,,,-99.99,tws,2013-07-05 21:37:00,
2013-07-05 17:42:00,90.9,76.5,30.06,SSW,202,13.1,13.1,62,-99.99,,,-99.99,tws,2013-07-05 21:42:00,
2013-07-05 17:48:00,90.8,75.9,30.06,SW,225,13.9,13.9,61,-99.99,,,-99.99,tws,2013-07-05 21:48:00,
2013-07-05 17:53:00,90.1,75.5,30.06,SW,225,12.4,12.4,61,-99.99,,,-99.99,tws,2013-07-05 21:53:00,
2013-07-05 17:58:00,89.9,75.6,30.06,SW,225,18.5,18.5,62,-99.99,,,-99.99,tws,2013-07-05 21:58:00,
2013-07-05 18:03:00,90.3,75.8,30.06,South,180,15.0,15.0,61,-99.99,,,-99.99,tws,2013-07-05 22:03:00,
2013-07-05 18:08:00,91.0,75.9,30.05,SSW,202,14.0,14.0,60,-99.99,,,-99.99,tws,2013-07-05 22:08:00,
2013-07-05 18:10:00,93.0,76.3,30.05,South,180,19.2,19.2,57,-99.99,,,-99.99,tws,2013-07-05 22:10:00,
2013-07-05 18:15:00,89.7,75.4,30.05,WSW,247,12.8,12.8,62,-99.99,,,-99.99,tws,2013-07-05 22:15:00,
2013-07-05 18:20:00,90.5,75.3,30.05,SW,225,13.7,13.7,60,-99.99,,,-99.99,tws,2013-07-05 22:20:00,
2013-07-05 18:22:00,89.4,74.6,30.05,South,180,16.5,16.5,61,-99.99,,,-99.99,tws,2013-07-05 22:22:00,
2013-07-05 18:27:00,91.8,76.3,30.05,SSW,202,11.0,11.0,60,-99.99,,,-99.99,tws,2013-07-05 22:27:00,
2013-07-05 18:32:00,89.7,74.6,30.05,WSW,247,12.7,12.7,60,-99.99,,,-99.99,tws,2013-07-05 22:32:00,
2013-07-05 18:37:00,91.9,76.3,30.05,SSW,202,11.1,11.1,59,-99.99,,,-99.99,tws,2013-07-05 22:37:00,
2013-07-05 18:42:00,90.6,76.3,30.05,SSE,157,10.4,10.4,62,-99.99,,,-99.99,tws,2013-07-05 22:42:00,
2013-07-05 18:47:00,90.0,75.4,30.05,South,180,13.5,13.5,61,-99.99,,,-99.99,tws,2013-07-05 22:47:00,
2013-07-05 18:52:00,89.2,76.1,30.05,SW,225,11.0,11.0,64,-99.99,,,-99.99,tws,2013-07-05 22:52:00,
2013-07-05 18:57:00,90.3,75.6,30.05,SSW,202,10.3,10.3,61,-99.99,,,-99.99,tws,2013-07-05 22:57:00,
2013-07-05 19:02:00,88.6,75.4,30.05,South,180,13.2,13.2,64,-99.99,,,-99.99,tws,2013-07-05 23:02:00,
2013-07-05 19:07:00,86.7,74.7,30.05,South,180,10.7,10.7,67,-99.99,,,-99.99,tws,2013-07-05 23:07:00,
2013-07-05 19:12:00,88.3,75.3,30.05,SSW,202,8.4,8.4,65,-99.99,,,-99.99,tws,2013-07-05 23:12:00,
2013-07-05 19:17:00,87.9,74.6,30.05,South,180,9.2,9.2,64,-99.99,,,-99.99,tws,2013-07-05 23:17:00,
2013-07-05 19:22:00,89.3,75.3,30.05,South,180,10.7,10.7,62,-99.99,,,-99.99,tws,2013-07-05 23:22:00,
2013-07-05 19:27:00,88.1,74.9,30.05,SW,225,12.7,12.7,64,-99.99,,,-99.99,tws,2013-07-05 23:27:00,
2013-07-05 19:33:00,88.5,74.8,30.05,SW,225,12.3,12.3,63,-99.99,,,-99.99,tws,2013-07-05 23:33:00,
2013-07-05 19:39:00,87.8,74.8,30.05,SSW,202,13.5,13.5,64,-99.99,,,-99.99,tws,2013-07-05 23:39:00,
2013-07-05 19:45:00,87.0,74.6,30.05,ESE,112,8.8,8.8,66,-99.99,,,-99.99,tws,2013-07-05 23:45:00,
2013-07-05 19:50:00,88.7,75.4,30.05,South,180,10.2,10.2,64,-99.99,,,-99.99,tws,2013-07-05 23:50:00,
2013-07-05 19:55:00,86.5,74.5,30.05,SSE,157,8.2,8.2,67,-99.99,,,-99.99,tws,2013-07-05 23:55:00,
2013-07-05 20:00:00,85.4,74.2,30.05,SSW,202,11.2,11.2,68,-99.99,,,-99.99,tws,2013-07-06 00:00:00,
2013-07-05 20:05:00,84.9,74.3,30.05,SW,225,7.1,7.1,70,-99.99,,,-99.99,tws,2013-07-06 00:05:00,
2013-07-05 20:10:00,83.7,73.8,30.05,WSW,247,9.5,9.5,71,-99.99,,,-99.99,tws,2013-07-06 00:10:00,
2013-07-05 20:15:00,83.4,73.4,30.05,South,180,11.6,11.6,71,-99.99,,,-99.99,tws,2013-07-06 00:15:00,
2013-07-05 20:20:00,83.1,73.8,30.05,South,180,3.6,3.6,73,-99.99,,,-99.99,tws,2013-07-06 00:20:00,
2013-07-05 20:25:00,83.0,73.5,30.05,South,180,8.1,8.1,72,-99.99,,,-99.99,tws,2013-07-06 00:25:00,
2013-07-05 20:30:00,82.3,73.4,30.05,South,180,4.8,4.8,73,-99.99,,,-99.99,tws,2013-07-06 00:30:00,
2013-07-05 20:35:00,82.4,73.1,30.05,SW,225,6.5,6.5,73,-99.99,,,-99.99,tws,2013-07-06 00:35:00,
2013-07-05 20:36:00,82.3,73.2,30.05,SSW,202,7.7,7.7,73,-99.99,,,-99.99,tws,2013-07-06 00:36:00,
2013-07-05 20:41:00,82.2,73.1,30.05,SSE,157,7.6,7.6,73,-99.99,,,-99.99,tws,2013-07-06 00:41:00,
2013-07-05 20:46:00,82.1,73.4,30.05,South,180,7.2,7.2,74,-99.99,,,-99.99,tws,2013-07-06 00:46:00,
2013-07-05 20:51:00,82.0,73.3,30.06,South,180,6.9,6.9,74,-99.99,,,-99.99,tws,2013-07-06 00:51:00,
2013-07-05 20:56:00,81.8,73.0,30.06,SW,225,7.9,7.9,74,-99.99,,,-99.99,tws,2013-07-06 00:56:00,
2013-07-05 21:01:00,81.8,73.1,30.06,SSW,202,6.4,6.4,74,-99.99,,,-99.99,tws,2013-07-06 01:01:00,
2013-07-05 21:06:00,81.5,73.2,30.06,WSW,247,6.3,6.3,75,-99.99,,,-99.99,tws,2013-07-06 01:06:00,
2013-07-05 21:11:00,81.2,73.2,30.06,SW,225,6.9,6.9,76,-99.99,,,-99.99,tws,2013-07-06 01:11:00,
2013-07-05 21:16:00,81.5,73.2,30.07,SW,225,6.9,6.9,75,-99.99,,,-99.99,tws,2013-07-06 01:16:00,
2013-07-05 21:21:00,81.5,73.3,30.07,WSW,247,2.4,2.4,75,-99.99,,,-99.99,tws,2013-07-06 01:21:00,
2013-07-05 21:26:00,81.6,73.3,30.07,South,180,0.1,0.1,75,-99.99,,,-99.99,tws,2013-07-06 01:26:00,
2013-07-05 21:31:00,81.4,72.8,30.07,SSW,202,3.1,3.1,74,-99.99,,,-99.99,tws,2013-07-06 01:31:00,
2013-07-05 21:36:00,81.1,72.8,30.08,SW,225,2.3,2.3,75,-99.99,,,-99.99,tws,2013-07-06 01:36:00,
2013-07-05 21:41:00,81.3,73.2,30.08,SSW,202,3.3,3.3,76,-99.99,,,-99.99,tws,2013-07-06 01:41:00,
2013-07-05 21:46:00,80.9,72.9,30.08,SSW,202,1.5,1.5,76,-99.99,,,-99.99,tws,2013-07-06 01:46:00,
2013-07-05 21:51:00,81.1,73.3,30.08,South,180,2.4,2.4,76,-99.99,,,-99.99,tws,2013-07-06 01:51:00,
2013-07-05 21:56:00,80.9,73.0,30.08,South,180,6.1,6.1,76,-99.99,,,-99.99,tws,2013-07-06 01:56:00,
2013-07-05 21:59:00,81.0,72.9,30.08,South,180,7.9,7.9,76,-99.99,,,-99.99,tws,2013-07-06 01:59:00,
2013-07-05 22:04:00,80.6,72.8,30.08,South,180,7.9,7.9,76,-99.99,,,-99.99,tws,2013-07-06 02:04:00,
2013-07-05 22:09:00,80.6,73.0,30.08,South,180,3.2,3.2,77,-99.99,,,-99.99,tws,2013-07-06 02:09:00,
2013-07-05 22:14:00,80.4,73.0,30.08,SSE,157,4.1,4.1,77,-99.99,,,-99.99,tws,2013-07-06 02:14:00,
2013-07-05 22:19:00,80.1,72.9,30.09,South,180,2.5,2.5,78,-99.99,,,-99.99,tws,2013-07-06 02:19:00,
2013-07-05 22:24:00,80.0,72.8,30.09,South,180,6.8,6.8,78,-99.99,,,-99.99,tws,2013-07-06 02:24:00,
2013-07-05 22:29:00,80.1,72.8,30.09,SW,225,7.7,7.7,78,-99.99,,,-99.99,tws,2013-07-06 02:29:00,
2013-07-05 22:34:00,80.0,72.8,30.09,South,180,5.4,5.4,78,-99.99,,,-99.99,tws,2013-07-06 02:34:00,
2013-07-05 22:40:00,79.7,72.8,30.09,SSE,157,8.1,8.1,79,-99.99,,,-99.99,tws,2013-07-06 02:40:00,
2013-07-05 22:45:00,79.5,73.0,30.09,SSE,157,6.0,6.0,80,-99.99,,,-99.99,tws,2013-07-06 02:45:00,
2013-07-05 22:50:00,79.3,72.8,30.09,South,180,1.5,1.5,80,-99.99,,,-99.99,tws,2013-07-06 02:50:00,
2013-07-05 22:55:00,78.9,72.3,30.09,South,180,9.4,9.4,79,-99.99,,,-99.99,tws,2013-07-06 02:55:00,
2013-07-05 23:00:00,78.8,72.5,30.09,ESE,112,8.0,8.0,80,-99.99,,,-99.99,tws,2013-07-06 03:00:00,
2013-07-05 23:05:00,78.5,72.6,30.09,South,180,8.0,8.0,81,-99.99,,,-99.99,tws,2013-07-06 03:05:00,
2013-07-05 23:10:00,78.3,72.5,30.08,South,180,8.3,8.3,82,-99.99,,,-99.99,tws,2013-07-06 03:10:00,
2013-07-05 23:13:00,78.3,72.5,30.09,South,180,8.5,8.5,82,-99.99,,,-99.99,tws,2013-07-06 03:13:00,
2013-07-05 23:18:00,77.9,72.2,30.09,South,180,8.4,8.4,82,-99.99,,,-99.99,tws,2013-07-06 03:18:00,
2013-07-05 23:23:00,77.7,72.3,30.09,South,180,8.3,8.3,83,-99.99,,,-99.99,tws,2013-07-06 03:23:00,
2013-07-05 23:28:00,77.9,72.6,30.09,SW,225,8.5,8.5,83,-99.99,,,-99.99,tws,2013-07-06 03:28:00,
2013-07-05 23:33:00,77.9,71.7,30.09,South,180,8.6,8.6,81,-99.99,,,-99.99,tws,2013-07-06 03:33:00,
2013-07-05 23:38:00,77.8,72.1,30.09,South,180,9.5,9.5,82,-99.99,,,-99.99,tws,2013-07-06 03:38:00,
2013-07-05 23:43:00,77.7,72.3,30.09,SSE,157,11.2,11.2,83,-99.99,,,-99.99,tws,2013-07-06 03:43:00,
2013-07-05 23:48:00,77.6,72.1,30.08,South,180,10.9,10.9,83,-99.99,,,-99.99,tws,2013-07-06 03:48:00,
2013-07-05 23:53:00,77.6,72.1,30.09,South,180,10.0,10.0,82,-99.99,,,-99.99,tws,2013-07-06 03:53:00,
2013-07-05 23:58:00,77.6,72.1,30.09,SSW,202,7.6,7.6,82,-99.99,,,-99.99,tws,2013-07-06 03:58:00,